LESO/EAS METAR and TAF weather

Enter ICAO airport designator
Station Type Date Time Source
LESO METAR 2019/12/08 17:17 UTC NOAA

LESO 081717Z 29010KT 230V340 9999 FEW007 BKN018 FEW025TCU OVC055 14/12 Q1023 RESHRA


Station Type Date Time Source
LESO Decoded METAR 2019/12/08 17:17 UTC NOAA

San Sebastian / Fuenterrabia, Spain (LESO) 43-21N 001-48W 8M
Dec 08, 2019 - 12:17 PM EST / 2019.12.08 1717 UTC
Wind: from the WNW (290 degrees) at 12 MPH (10 KT) (direction variable):0
Visibility: greater than 7 mile(s):0
Sky conditions: overcast
Weather: Towering cumulus clouds observed
Temperature: 57 F (14 C)
Dew Point: 53 F (12 C)
Relative Humidity: 87%
Pressure (altimeter): 30.21 in. Hg (1023 hPa)
ob: LESO 081717Z 29010KT 230V340 9999 FEW007 BKN018 FEW025TCU OVC055 14/12 Q1023 RESHRA
cycle: 17

Station Type Date Time Source
LESO TAF 2019/12/08 12:27 UTC NOAA

TAF TAF LESO 081100Z 0812/0912 VRB05KT 9999 SCT050 TX15/0817Z TN08/0906Z PROB40
TEMPO 0812/0818 3000 RA BKN010 PROB30
TEMPO 0814/0816 BKN005 PROB40
TEMPO 0812/0821 30010KT
BECMG 0903/0905 28010KT
TEMPO 0903/0912 30015G30KT 3000 RA BKN010

Example: see airport list